Time;durP1;ratioP1;P1;durP2;ratioP2;P2;SDS_P1;SDS_P2;PMS_P1;PMS_P2;Temp;Humidity;BMP_temperature;BMP_pressure;BME280_temperature;BME280_humidity;BME280_pressure;Samples;Min_cycle;Max_cycle;Signal;HPM_P1;HPM_P2
2022/01/15 00:01:05;;;;;;;562.97;51.67;;;;;;;2.36;100.00;103002.06;4982655;28;20371;-82
2022/01/15 00:03:31;;;;;;;605.75;53.15;;;;;;;2.39;100.00;103004.75;4996305;28;20462;-82
2022/01/15 00:05:57;;;;;;;601.65;55.78;;;;;;;2.42;100.00;103007.44;5001612;28;20057;-82
2022/01/15 00:08:23;;;;;;;529.33;48.13;;;;;;;2.43;100.00;103000.19;5002503;28;20030;-81
2022/01/15 00:10:49;;;;;;;528.05;50.85;;;;;;;2.42;100.00;103003.84;5001585;28;20516;-82
2022/01/15 00:13:28;;;;;;;543.63;52.00;;;;;;;2.39;100.00;103002.97;4984973;28;20038;-82
2022/01/15 00:16:05;;;;;;;573.35;53.30;;;;;;;2.42;100.00;103002.03;5007379;28;20034;-82
2022/01/15 00:18:43;;;;;;;647.00;55.75;;;;;;;2.47;100.00;102988.47;5023872;28;20598;-81
2022/01/15 00:21:09;;;;;;;588.92;55.15;;;;;;;2.48;100.00;102984.84;4986059;28;20061;-82
2022/01/15 00:23:35;;;;;;;592.55;51.17;;;;;;;2.57;100.00;102976.63;5013719;28;20027;-82
2022/01/15 00:26:01;;;;;;;579.85;53.00;;;;;;;2.47;100.00;102978.53;4992214;28;20031;-82
2022/01/15 00:28:26;;;;;;;712.58;59.78;;;;;;;2.42;100.00;102971.41;4979908;28;20022;-82
2022/01/15 00:30:52;;;;;;;712.10;60.90;;;;;;;2.45;100.00;102974.97;4996354;28;20038;-82
2022/01/15 00:33:17;;;;;;;573.38;56.75;;;;;;;2.48;100.00;102966.81;4996981;28;20034;-82
2022/01/15 00:35:42;;;;;;;720.75;57.33;;;;;;;2.41;100.00;102975.00;4995342;28;20031;-82
2022/01/15 00:38:08;;;;;;;600.38;54.80;;;;;;;2.43;100.00;102971.38;4999036;28;20034;-82
2022/01/15 00:40:33;;;;;;;701.95;58.90;;;;;;;2.39;100.00;102978.63;4996647;28;20038;-82
2022/01/15 00:42:59;;;;;;;913.42;64.80;;;;;;;2.43;100.00;102975.88;5015999;28;20027;-82
2022/01/15 00:45:25;;;;;;;666.63;61.47;;;;;;;2.49;100.00;102970.41;4999933;28;20124;-82
2022/01/15 00:47:52;;;;;;;541.72;54.38;;;;;;;2.46;100.00;102973.13;4984367;28;20062;-82
2022/01/15 00:50:20;;;;;;;662.97;53.97;;;;;;;2.37;100.00;102966.03;4999830;28;20134;-82
2022/01/15 00:52:45;;;;;;;629.63;59.83;;;;;;;2.33;100.00;102959.78;4997928;28;20034;-82
2022/01/15 00:55:12;;;;;;;662.13;55.63;;;;;;;2.42;100.00;102958.75;4987468;28;20548;-82
2022/01/15 00:57:38;;;;;;;539.88;53.30;;;;;;;2.44;100.00;102956.03;5000116;28;20042;-82
2022/01/15 01:00:06;;;;;;;693.78;58.72;;;;;;;2.34;100.00;102945.31;5003098;28;20081;-82
2022/01/15 01:02:32;;;;;;;664.88;61.53;;;;;;;2.46;100.00;102947.03;4968468;28;20059;-82
2022/01/15 01:04:57;;;;;;;646.08;58.40;;;;;;;2.41;100.00;102948.88;5001012;28;20037;-82
2022/01/15 01:07:23;;;;;;;571.38;57.38;;;;;;;2.35;100.00;102936.31;5002276;28;20031;-82
2022/01/15 01:13:07;;;;;;;677.00;58.33;;;;;;;2.41;100.00;102935.38;5003246;28;20478;-83
2022/01/15 01:23:33;;;;;;;632.42;60.08;;;;;;;2.33;100.00;102931.84;5006469;28;20065;-83
2022/01/15 01:26:07;;;;;;;610.05;58.90;;;;;;;2.30;100.00;102918.38;4993273;28;20445;-83
2022/01/15 01:28:38;;;;;;;615.70;54.28;;;;;;;2.29;100.00;102916.56;5012999;28;20059;-83
2022/01/15 01:31:15;;;;;;;634.47;62.83;;;;;;;2.29;100.00;102924.69;4985794;28;20058;-82
2022/01/15 01:33:45;;;;;;;560.75;54.30;;;;;;;2.18;100.00;102933.81;5006453;28;20034;-82
2022/01/15 01:41:16;;;;;;;556.45;51.92;;;;;;;2.22;100.00;102918.44;5031746;28;20066;-83
2022/01/15 01:43:48;;;;;;;515.83;48.95;;;;;;;2.15;100.00;102917.63;5001155;28;20041;-83
2022/01/15 01:48:40;;;;;;;510.98;51.47;;;;;;;2.22;100.00;102909.44;5029563;28;20060;-83
2022/01/15 01:51:07;;;;;;;537.05;53.30;;;;;;;2.18;100.00;102916.66;4990666;28;20030;-82
2022/01/15 01:53:36;;;;;;;460.35;47.75;;;;;;;2.20;100.00;102917.56;4992152;28;20045;-82
2022/01/15 01:56:03;;;;;;;535.63;50.08;;;;;;;2.14;100.00;102906.81;5038500;28;20098;-82
2022/01/15 01:58:29;;;;;;;534.13;54.72;;;;;;;2.09;100.00;102893.34;5007188;28;20031;-82
2022/01/15 02:00:54;;;;;;;481.33;51.65;;;;;;;2.17;100.00;102907.69;5007230;28;20038;-82
2022/01/15 02:03:20;;;;;;;508.95;49.40;;;;;;;2.24;100.00;102911.22;5002789;28;20181;-82
2022/01/15 02:05:45;;;;;;;650.88;57.33;;;;;;;2.13;100.00;102908.66;5006108;28;20065;-81
2022/01/15 02:08:11;;;;;;;606.97;50.97;;;;;;;2.12;100.00;102890.63;5003084;28;20118;-82
2022/01/15 02:10:37;;;;;;;554.30;53.63;;;;;;;2.22;100.00;102895.94;5001268;28;20038;-82
2022/01/15 02:13:03;;;;;;;545.42;55.20;;;;;;;2.18;100.00;102890.56;5005649;28;20502;-82
2022/01/15 02:15:28;;;;;;;603.38;53.90;;;;;;;2.26;100.00;102894.97;4987962;28;20045;-82
2022/01/15 02:17:54;;;;;;;615.58;53.20;;;;;;;2.26;100.00;102882.34;5013250;28;20069;-82
2022/01/15 02:25:47;;;;;;;420.45;45.95;;;;;;;2.25;100.00;102901.28;4985491;28;20058;-82
2022/01/15 02:28:14;;;;;;;486.60;46.95;;;;;;;2.23;100.00;102895.00;5010000;28;20035;-82
2022/01/15 02:30:40;;;;;;;515.97;50.00;;;;;;;2.19;100.00;102886.03;5002151;28;20046;-82
2022/01/15 02:33:07;;;;;;;531.85;46.88;;;;;;;2.20;100.00;102894.13;4991706;28;20459;-82
2022/01/15 02:35:33;;;;;;;486.13;51.38;;;;;;;2.21;100.00;102900.44;5003756;28;20027;-81
2022/01/15 02:38:07;;;;;;;518.88;47.85;;;;;;;2.17;100.00;102904.97;4986857;28;20434;-82
2022/01/15 02:40:35;;;;;;;384.70;44.47;;;;;;;2.13;100.00;102897.84;5008733;28;20046;-82
2022/01/15 02:43:11;;;;;;;314.00;42.35;;;;;;;2.11;100.00;102887.94;5021079;28;20064;-82
2022/01/15 02:45:41;;;;;;;316.55;39.15;;;;;;;2.00;100.00;102879.94;4988577;28;20035;-82
2022/01/15 02:48:14;;;;;;;348.23;44.38;;;;;;;2.09;100.00;102882.56;5005017;28;20033;-82
2022/01/15 02:50:42;;;;;;;380.23;43.90;;;;;;;2.06;100.00;102874.47;4994135;28;20390;-82
2022/01/15 02:53:09;;;;;;;350.98;39.53;;;;;;;2.03;100.00;102858.28;4992648;28;20006;-81
2022/01/15 02:55:34;;;;;;;330.50;42.25;;;;;;;2.11;100.00;102867.22;5004049;28;20038;-82
2022/01/15 02:58:00;;;;;;;358.27;42.85;;;;;;;2.13;100.00;102864.50;4992182;28;20043;-82
2022/01/15 03:00:27;;;;;;;311.42;40.47;;;;;;;2.09;100.00;102851.94;5003034;28;20544;-81
2022/01/15 03:02:52;;;;;;;318.90;40.70;;;;;;;2.12;100.00;102851.91;5007246;28;20027;-82
2022/01/15 03:05:20;;;;;;;358.38;43.65;;;;;;;2.12;100.00;102857.31;5001471;28;20046;-83
2022/01/15 03:07:46;;;;;;;317.80;41.85;;;;;;;2.17;100.00;102844.66;5004167;28;20559;-82
2022/01/15 03:10:11;;;;;;;280.25;39.55;;;;;;;2.15;100.00;102844.66;4985483;28;20042;-83
2022/01/15 03:12:37;;;;;;;296.85;40.97;;;;;;;2.16;100.00;102832.91;5000114;28;20041;-82
2022/01/15 03:15:07;;;;;;;273.38;39.20;;;;;;;2.16;100.00;102823.94;5005193;28;20042;-82
2022/01/15 03:17:33;;;;;;;396.05;46.03;;;;;;;2.11;100.00;102818.56;5003465;28;20038;-83
2022/01/15 03:20:00;;;;;;;361.73;43.75;;;;;;;2.18;100.00;102817.59;4993190;28;20123;-82
2022/01/15 03:22:25;;;;;;;426.67;47.72;;;;;;;2.18;100.00;102817.59;5002076;28;20042;-83
2022/01/15 03:24:51;;;;;;;477.73;46.85;;;;;;;2.15;100.00;102814.06;4983911;28;20434;-83
2022/01/15 03:27:21;;;;;;;418.30;46.78;;;;;;;2.34;100.00;102814.69;5001676;28;20371;-82
2022/01/15 03:29:46;;;;;;;462.55;49.20;;;;;;;2.20;100.00;102814.88;4987406;28;20437;-83
2022/01/15 03:32:12;;;;;;;443.33;50.35;;;;;;;2.19;100.00;102800.47;5024741;28;20040;-83
2022/01/15 03:34:37;;;;;;;464.25;47.40;;;;;;;2.16;100.00;102796.91;4999985;28;20126;-83
2022/01/15 03:37:03;;;;;;;378.10;45.35;;;;;;;2.26;100.00;102801.28;5016644;28;20094;-82
2022/01/15 03:39:28;;;;;;;344.52;41.13;;;;;;;2.19;100.00;102789.66;4998208;28;20121;-82
2022/01/15 03:41:54;;;;;;;339.38;42.25;;;;;;;2.27;100.00;102789.56;4999766;28;20507;-82
2022/01/15 03:44:19;;;;;;;383.58;44.90;;;;;;;2.22;100.00;102783.31;4996230;28;20038;-82
2022/01/15 03:46:45;;;;;;;377.77;44.88;;;;;;;2.20;100.00;102779.75;5000969;28;20051;-83
2022/01/15 03:49:10;;;;;;;361.95;43.17;;;;;;;2.26;100.00;102792.28;4962620;28;20150;-82
2022/01/15 03:51:36;;;;;;;411.90;44.45;;;;;;;2.20;100.00;102788.75;4981899;28;20022;-82
2022/01/15 03:54:02;;;;;;;382.42;44.55;;;;;;;2.26;100.00;102797.69;5014768;28;20027;-82
2022/01/15 03:56:27;;;;;;;394.13;44.80;;;;;;;2.31;100.00;102798.50;5023624;28;20045;-82
2022/01/15 03:58:53;;;;;;;304.35;41.53;;;;;;;2.30;100.00;102789.53;5005858;28;20021;-81
2022/01/15 04:01:19;;;;;;;344.90;43.60;;;;;;;2.30;100.00;102785.94;4999212;28;20034;-82
2022/01/15 04:03:44;;;;;;;388.55;42.47;;;;;;;2.29;100.00;102778.72;5002078;28;20046;-82
2022/01/15 04:06:09;;;;;;;347.92;43.53;;;;;;;2.34;100.00;102780.44;5001634;28;20037;-82
2022/01/15 04:08:35;;;;;;;391.48;42.50;;;;;;;2.31;100.00;102782.28;4984767;28;20034;-82
2022/01/15 04:11:00;;;;;;;359.73;42.83;;;;;;;2.36;100.00;102775.94;4984203;28;20070;-82
2022/01/15 04:13:26;;;;;;;371.67;39.80;;;;;;;2.28;100.00;102774.22;4998520;28;20049;-82
2022/01/15 04:15:53;;;;;;;236.60;32.70;;;;;;;2.33;100.00;102765.16;4997481;28;20030;-82
2022/01/15 04:18:22;;;;;;;356.27;43.10;;;;;;;2.30;100.00;102753.50;4997253;28;20042;-82
2022/01/15 04:20:48;;;;;;;385.70;41.75;;;;;;;2.25;100.00;102748.16;4980883;28;20035;-81
2022/01/15 04:23:14;;;;;;;317.75;41.60;;;;;;;2.38;100.00;102757.00;4984705;28;20047;-81
2022/01/15 04:25:40;;;;;;;298.83;39.10;;;;;;;2.32;100.00;102747.13;5001233;28;20037;-82
2022/01/15 04:28:09;;;;;;;300.77;40.17;;;;;;;2.37;100.00;102755.19;5000851;28;20042;-82
2022/01/15 04:30:36;;;;;;;273.00;37.47;;;;;;;2.31;100.00;102752.56;4984561;28;20030;-82
2022/01/15 04:33:01;;;;;;;367.65;39.35;;;;;;;2.31;100.00;102756.19;5000410;28;20037;-82
2022/01/15 04:35:27;;;;;;;309.05;39.70;;;;;;;2.33;100.00;102754.34;5000987;28;20023;-82
2022/01/15 04:38:00;;;;;;;262.10;34.03;;;;;;;2.23;100.00;102740.97;4998733;28;20042;-81
2022/01/15 04:40:26;;;;;;;216.90;33.80;;;;;;;2.31;100.00;102749.88;5018804;28;20390;-82
2022/01/15 04:42:51;;;;;;;273.50;36.20;;;;;;;2.23;100.00;102736.47;5016746;28;20061;-81
2022/01/15 04:45:17;;;;;;;209.25;31.73;;;;;;;2.27;100.00;102727.41;5014959;28;20034;-82
2022/01/15 04:47:42;;;;;;;245.35;35.78;;;;;;;2.23;100.00;102730.16;4996162;28;20497;-82
2022/01/15 04:50:12;;;;;;;249.32;34.25;;;;;;;2.30;100.00;102742.69;5009838;28;20038;-82
2022/01/15 04:52:38;;;;;;;230.45;35.10;;;;;;;2.23;100.00;102724.75;4996119;28;20107;-82
2022/01/15 04:55:06;;;;;;;228.30;34.38;;;;;;;2.22;100.00;102731.97;5007043;28;20522;-81
2022/01/15 04:57:32;;;;;;;244.30;32.70;;;;;;;2.27;100.00;102727.41;4994248;28;20042;-82
2022/01/15 04:59:58;;;;;;;238.00;34.65;;;;;;;2.11;100.00;102706.91;4996113;28;20038;-82
2022/01/15 05:02:23;;;;;;;214.45;32.13;;;;;;;2.18;100.00;102719.41;4980778;28;20045;-81
2022/01/15 05:04:49;;;;;;;257.88;35.20;;;;;;;2.20;100.00;102723.00;4998622;28;20097;-82
2022/01/15 05:07:15;;;;;;;258.05;33.38;;;;;;;2.12;100.00;102711.41;5000599;28;20033;-82
2022/01/15 05:09:40;;;;;;;230.85;31.70;;;;;;;2.09;100.00;102715.03;5000715;28;20061;-82
2022/01/15 05:12:11;;;;;;;251.93;35.88;;;;;;;2.11;100.00;102725.81;5016540;28;20026;-82
2022/01/15 05:14:37;;;;;;;249.90;34.00;;;;;;;2.12;100.00;102715.00;4993833;28;20482;-82
2022/01/15 05:17:03;;;;;;;255.30;34.05;;;;;;;2.18;100.00;102719.41;5000487;28;20061;-82
2022/01/15 05:19:29;;;;;;;283.75;35.22;;;;;;;2.15;100.00;102714.97;4994123;28;20082;-82
2022/01/15 05:21:56;;;;;;;283.50;34.88;;;;;;;2.17;100.00;102726.63;4980196;28;20037;-81
2022/01/15 05:24:22;;;;;;;242.05;37.88;;;;;;;2.15;100.00;102712.25;4984663;28;20074;-82
2022/01/15 05:26:48;;;;;;;315.08;39.20;;;;;;;2.13;100.00;102707.78;4999061;28;20055;-82
2022/01/15 05:29:14;;;;;;;341.30;39.95;;;;;;;2.10;100.00;102713.22;5000464;28;20060;-82
2022/01/15 05:31:39;;;;;;;316.70;38.08;;;;;;;1.98;100.00;102701.69;4996347;28;20061;-82
2022/01/15 05:34:05;;;;;;;308.80;36.55;;;;;;;2.09;100.00;102723.16;4980872;28;20041;-82
2022/01/15 05:36:31;;;;;;;264.58;34.40;;;;;;;2.17;100.00;102713.13;4999907;28;20038;-82
2022/01/15 05:38:57;;;;;;;337.02;39.40;;;;;;;2.06;100.00;102704.28;5008644;28;20034;-82
2022/01/15 05:41:22;;;;;;;308.23;38.35;;;;;;;2.08;100.00;102710.53;4985919;28;20026;-82
2022/01/15 05:43:48;;;;;;;330.40;40.92;;;;;;;2.01;100.00;102698.91;4984821;28;20110;-82
2022/01/15 05:46:13;;;;;;;298.00;38.53;;;;;;;2.03;100.00;102707.00;5031196;28;20034;-83
2022/01/15 05:48:39;;;;;;;283.52;37.83;;;;;;;2.01;100.00;102690.81;5020841;28;20389;-82
2022/01/15 05:51:04;;;;;;;315.27;37.92;;;;;;;1.92;100.00;102692.75;5011862;28;20093;-82
2022/01/15 05:53:30;;;;;;;265.52;33.15;;;;;;;2.02;100.00;102689.03;4982436;28;20395;-82
2022/01/15 05:55:55;;;;;;;292.40;34.50;;;;;;;1.88;100.00;102688.31;5000545;28;20098;-82
2022/01/15 05:58:21;;;;;;;327.38;35.45;;;;;;;1.86;100.00;102682.94;5001104;28;20042;-83
2022/01/15 06:00:46;;;;;;;299.85;33.88;;;;;;;1.80;100.00;102677.59;4987016;28;20037;-82
2022/01/15 06:03:12;;;;;;;298.88;31.63;;;;;;;1.88;100.00;102674.81;4984276;28;20061;-82
2022/01/15 06:05:37;;;;;;;304.38;30.00;;;;;;;1.71;100.00;102673.22;4999579;28;20379;-82
2022/01/15 06:08:03;;;;;;;243.32;28.10;;;;;;;1.72;100.00;102674.09;5003071;28;20033;-82
2022/01/15 06:10:28;;;;;;;272.08;29.98;;;;;;;1.67;100.00;102671.47;5013140;28;20046;-82
2022/01/15 06:12:54;;;;;;;297.13;32.33;;;;;;;1.73;100.00;102674.09;5015896;28;20045;-82
2022/01/15 06:15:19;;;;;;;193.57;27.00;;;;;;;1.64;100.00;102667.00;4987699;28;20045;-82
2022/01/15 06:17:45;;;;;;;270.75;25.42;;;;;;;1.60;100.00;102665.25;5004370;28;20098;-82
2022/01/15 06:20:12;;;;;;;319.92;29.42;;;;;;;1.69;100.00;102672.34;4994199;28;20117;-81
2022/01/15 06:22:37;;;;;;;279.08;30.77;;;;;;;1.57;100.00;102670.69;5004610;28;20152;-82
2022/01/15 06:25:04;;;;;;;262.20;29.20;;;;;;;1.51;100.00;102659.06;4988401;28;20437;-82
2022/01/15 06:27:31;;;;;;;293.35;28.25;;;;;;;1.57;100.00;102673.38;4993346;28;20049;-82
2022/01/15 06:29:57;;;;;;;248.05;28.95;;;;;;;1.50;100.00;102660.88;4984867;28;20046;-81
2022/01/15 06:32:24;;;;;;;267.38;24.90;;;;;;;1.58;100.00;102671.59;4998026;28;20033;-82
2022/01/15 06:34:50;;;;;;;269.65;26.40;;;;;;;1.34;100.00;102645.78;5013066;28;20127;-81
2022/01/15 06:37:15;;;;;;;302.73;29.20;;;;;;;1.46;100.00;102656.44;5004210;28;20069;-81
2022/01/15 06:39:41;;;;;;;255.73;25.95;;;;;;;1.48;100.00;102654.63;4988856;28;20041;-82
2022/01/15 06:42:06;;;;;;;309.67;28.20;;;;;;;1.40;100.00;102651.13;5020769;28;20038;-81
2022/01/15 06:44:32;;;;;;;292.75;27.55;;;;;;;1.41;100.00;102653.78;5022448;28;20483;-81
2022/01/15 06:46:57;;;;;;;259.98;28.73;;;;;;;1.37;100.00;102653.84;5011013;28;20106;-79
2022/01/15 06:49:23;;;;;;;267.40;24.58;;;;;;;1.31;100.00;102653.91;4990556;28;20033;-80
2022/01/15 06:51:49;;;;;;;276.95;24.27;;;;;;;1.40;100.00;102662.78;4998610;28;20030;-80
2022/01/15 06:54:14;;;;;;;305.13;26.02;;;;;;;1.28;100.00;102653.03;5002463;28;20026;-81
2022/01/15 06:56:40;;;;;;;317.73;28.48;;;;;;;1.30;100.00;102653.03;5003813;28;20039;-81
2022/01/15 06:59:05;;;;;;;334.83;29.52;;;;;;;1.29;100.00;102664.72;4982973;28;20493;-80
2022/01/15 07:01:31;;;;;;;390.17;25.30;;;;;;;1.24;100.00;102653.09;4998095;28;20047;-80
2022/01/15 07:03:56;;;;;;;316.90;27.17;;;;;;;1.16;100.00;102653.16;5000263;28;20134;-80
2022/01/15 07:06:22;;;;;;;289.45;27.85;;;;;;;1.19;100.00;102647.72;5000786;28;20657;-80
2022/01/15 07:08:47;;;;;;;355.48;26.20;;;;;;;1.24;100.00;102650.38;4985467;28;20113;-80
2022/01/15 07:11:13;;;;;;;269.40;31.60;;;;;;;1.12;100.00;102645.16;4995245;28;20568;-80
2022/01/15 07:13:38;;;;;;;230.88;24.50;;;;;;;1.23;100.00;102657.59;5011840;28;20044;-80
2022/01/15 07:16:03;;;;;;;348.83;31.13;;;;;;;1.15;100.00;102655.88;4998108;28;20129;-80
2022/01/15 07:18:29;;;;;;;298.73;30.27;;;;;;;1.15;100.00;102661.28;5002125;28;20486;-80
2022/01/15 07:20:55;;;;;;;304.55;33.53;;;;;;;1.18;100.00;102663.94;4982817;28;20494;-83
2022/01/15 07:23:20;;;;;;;339.15;32.08;;;;;;;1.09;100.00;102659.53;4976063;28;20093;-80
2022/01/15 07:25:46;;;;;;;323.85;30.90;;;;;;;1.04;100.00;102667.69;4989990;28;20536;-80
2022/01/15 07:28:12;;;;;;;369.20;32.65;;;;;;;1.14;100.00;102663.09;4983610;28;20123;-80
2022/01/15 07:30:38;;;;;;;216.95;28.83;;;;;;;1.03;100.00;102657.81;5001896;28;20398;-80
2022/01/15 07:33:03;;;;;;;210.25;29.20;;;;;;;0.88;100.00;102660.66;4998733;28;20371;-79
2022/01/15 07:35:29;;;;;;;289.20;31.00;;;;;;;0.88;100.00;102664.22;4999955;28;20072;-80
2022/01/15 07:37:55;;;;;;;264.55;29.25;;;;;;;0.83;100.00;102658.00;4998495;28;20468;-80
2022/01/15 07:40:20;;;;;;;314.08;32.35;;;;;;;0.79;100.00;102650.84;4999007;28;20031;-79
2022/01/15 07:42:46;;;;;;;243.88;27.50;;;;;;;0.89;100.00;102663.31;4985674;28;20038;-81
2022/01/15 07:45:16;;;;;;;229.88;27.23;;;;;;;0.72;100.00;102665.28;4994276;28;20043;-80
2022/01/15 07:47:42;;;;;;;353.05;31.95;;;;;;;0.72;100.00;102673.34;4979959;28;20035;-80
2022/01/15 07:50:11;;;;;;;297.30;27.45;;;;;;;0.65;100.00;102666.25;4979676;28;20057;-78
2022/01/15 07:52:37;;;;;;;307.35;29.70;;;;;;;0.68;100.00;102671.63;4997938;28;20046;-78
2022/01/15 07:55:04;;;;;;;381.98;31.33;;;;;;;0.72;100.00;102662.56;5000303;28;20462;-79
2022/01/15 07:57:29;;;;;;;395.75;32.28;;;;;;;0.68;100.00;102663.53;4994278;28;20038;-79
2022/01/15 07:59:55;;;;;;;302.00;29.35;;;;;;;0.63;100.00;102655.47;5016961;28;20092;-79
2022/01/15 08:02:20;;;;;;;272.13;29.33;;;;;;;0.57;100.00;102658.22;4998842;28;20034;-78
2022/01/15 08:04:46;;;;;;;306.40;32.30;;;;;;;0.65;100.00;102659.03;4983133;28;20034;-79
2022/01/15 08:07:11;;;;;;;296.55;28.88;;;;;;;0.60;100.00;102652.81;4998249;28;20037;-78
2022/01/15 08:09:37;;;;;;;238.88;33.03;;;;;;;0.73;100.00;102657.16;4977839;28;20125;-79
2022/01/15 08:12:03;;;;;;;306.42;32.20;;;;;;;0.68;100.00;102650.94;5011416;28;20030;-78
2022/01/15 08:14:28;;;;;;;318.02;34.25;;;;;;;0.72;100.00;102646.41;4999185;28;20031;-78
2022/01/15 08:16:54;;;;;;;255.02;29.63;;;;;;;0.66;100.00;102643.78;4984704;28;20030;-80
2022/01/15 08:19:20;;;;;;;317.10;32.55;;;;;;;0.76;100.00;102647.28;4988290;28;20089;-80
2022/01/15 08:21:45;;;;;;;228.52;30.23;;;;;;;0.83;100.00;102643.63;4995683;28;20131;-78
2022/01/15 08:24:11;;;;;;;263.25;33.90;;;;;;;0.78;100.00;102640.97;4982478;28;20085;-77
2022/01/15 08:26:36;;;;;;;312.98;36.92;;;;;;;0.82;100.00;102637.34;4990221;28;20089;-78
2022/01/15 08:29:03;;;;;;;337.45;38.13;;;;;;;0.84;100.00;102648.13;4986244;28;21701;-78
2022/01/15 08:31:28;;;;;;;303.20;33.45;;;;;;;0.85;100.00;102637.31;4986141;28;20041;-79
2022/01/15 08:33:54;;;;;;;365.40;42.08;;;;;;;0.76;100.00;102626.63;4980252;28;20041;-79
2022/01/15 08:36:20;;;;;;;337.63;38.25;;;;;;;0.85;100.00;102631.00;4995812;28;20061;-79
2022/01/15 08:38:47;;;;;;;364.67;38.67;;;;;;;0.94;100.00;102643.53;4996014;28;20030;-79
2022/01/15 08:41:14;;;;;;;360.40;39.67;;;;;;;0.86;100.00;102624.72;4997240;28;20437;-78
2022/01/15 08:43:40;;;;;;;307.48;37.70;;;;;;;0.91;100.00;102623.75;5000951;28;20046;-79
2022/01/15 08:46:06;;;;;;;315.70;36.60;;;;;;;0.93;100.00;102634.53;4978284;28;20484;-78
2022/01/15 08:48:31;;;;;;;309.40;37.65;;;;;;;0.95;100.00;102643.47;4985759;28;20030;-79
2022/01/15 08:50:57;;;;;;;217.00;31.42;;;;;;;0.95;100.00;102627.31;4992397;28;20035;-79
2022/01/15 08:53:23;;;;;;;351.08;41.80;;;;;;;0.85;100.00;102631.00;4988002;28;20027;-80
2022/01/15 08:55:49;;;;;;;281.02;34.53;;;;;;;0.93;100.00;102637.22;4989099;28;20038;-80
2022/01/15 08:58:14;;;;;;;282.00;36.03;;;;;;;0.90;100.00;102639.94;4990476;28;20438;-79
2022/01/15 09:00:40;;;;;;;221.32;30.35;;;;;;;0.93;100.00;102631.81;4990993;28;20074;-80
2022/01/15 09:03:09;;;;;;;254.40;33.38;;;;;;;0.80;100.00;102641.84;4988951;28;20034;-79
2022/01/15 09:05:35;;;;;;;294.92;32.80;;;;;;;0.85;100.00;102637.31;4983867;28;20574;-80
2022/01/15 09:08:03;;;;;;;229.63;29.70;;;;;;;0.78;100.00;102632.00;4981839;28;20030;-80
2022/01/15 09:10:31;;;;;;;218.13;31.30;;;;;;;0.84;100.00;102626.56;4994990;28;20053;-80
2022/01/15 09:12:57;;;;;;;261.42;31.45;;;;;;;0.86;100.00;102631.00;4995367;28;20042;-79
2022/01/15 09:15:24;;;;;;;287.52;32.53;;;;;;;0.90;100.00;102631.84;4995236;28;20038;-80
2022/01/15 09:17:49;;;;;;;229.13;33.10;;;;;;;0.95;100.00;102632.69;4976375;28;20026;-79
2022/01/15 09:20:18;;;;;;;262.25;33.60;;;;;;;1.00;100.00;102624.56;4995349;28;20105;-80
2022/01/15 09:22:43;;;;;;;223.02;30.50;;;;;;;0.83;100.00;102617.53;4988519;28;20046;-80
2022/01/15 09:25:09;;;;;;;276.15;35.10;;;;;;;0.98;100.00;102621.88;4987655;28;20035;-80
2022/01/15 09:30:19;;;;;;;239.73;31.58;;;;;;;1.01;100.00;102621.84;4985399;28;20031;-79
2022/01/15 09:32:55;;;;;;;302.20;35.22;;;;;;;0.97;100.00;102608.41;4981830;28;20041;-80
2022/01/15 09:35:23;;;;;;;255.40;36.85;;;;;;;1.03;100.00;102611.06;5008403;28;20059;-79
2022/01/15 09:37:50;;;;;;;252.82;34.28;;;;;;;1.03;100.00;102617.38;4992812;28;20043;-80
2022/01/15 09:40:18;;;;;;;250.75;34.10;;;;;;;1.02;100.00;102595.81;4990031;28;20026;-79
2022/01/15 09:42:44;;;;;;;255.93;37.17;;;;;;;1.10;100.00;102612.78;5000002;28;20116;-79
2022/01/15 09:45:11;;;;;;;291.48;36.75;;;;;;;1.14;100.00;102616.34;4987575;28;20038;-79
2022/01/15 09:47:40;;;;;;;277.13;36.58;;;;;;;1.13;100.00;102611.84;4978248;28;20434;-80
2022/01/15 09:50:10;;;;;;;221.32;37.72;;;;;;;1.18;100.00;102613.59;4995845;28;20041;-81
2022/01/15 09:52:39;;;;;;;310.75;38.97;;;;;;;1.20;100.00;102619.84;4977257;28;20499;-79
2022/01/15 09:55:11;;;;;;;309.35;38.88;;;;;;;1.18;100.00;102621.69;4985769;28;20039;-79
2022/01/15 09:57:38;;;;;;;288.45;40.70;;;;;;;1.21;100.00;102607.25;4995985;28;20047;-80
2022/01/15 10:00:09;;;;;;;331.67;37.75;;;;;;;1.13;100.00;102607.34;4998924;28;20077;-80
2022/01/15 10:02:36;;;;;;;260.52;38.92;;;;;;;1.13;100.00;102604.63;4997594;28;20498;-79
2022/01/15 10:05:01;;;;;;;336.67;39.28;;;;;;;1.21;100.00;102602.75;4986516;28;20060;-80
2022/01/15 10:07:28;;;;;;;260.33;41.08;;;;;;;1.36;100.00;102611.56;5007438;28;20030;-78
2022/01/15 10:09:55;;;;;;;382.15;40.38;;;;;;;1.29;100.00;102608.06;4993511;28;20109;-79
2022/01/15 10:12:31;;;;;;;300.58;40.90;;;;;;;1.30;100.00;102609.84;4985937;28;20050;-79
2022/01/15 10:15:05;;;;;;;254.02;37.08;;;;;;;1.43;100.00;102605.19;4998582;28;20483;-78
2022/01/15 10:17:33;;;;;;;310.25;42.58;;;;;;;1.34;100.00;102602.59;5031165;28;20053;-78
2022/01/15 10:20:01;;;;;;;276.10;40.70;;;;;;;1.31;100.00;102603.53;4983341;28;20089;-79
2022/01/15 10:22:28;;;;;;;206.75;34.63;;;;;;;1.14;100.00;102601.03;4973170;28;20023;-78
2022/01/15 10:24:57;;;;;;;293.73;41.70;;;;;;;1.21;100.00;102605.44;4981408;28;20030;-78
2022/01/15 10:27:29;;;;;;;272.95;40.85;;;;;;;1.21;100.00;102602.75;4982190;28;20023;-78
2022/01/15 10:29:59;;;;;;;278.13;40.55;;;;;;;1.10;100.00;102610.09;4982711;28;20046;-79
2022/01/15 10:32:30;;;;;;;284.05;40.78;;;;;;;1.14;100.00;102608.25;5000476;28;20030;-79
2022/01/15 10:34:57;;;;;;;307.63;41.90;;;;;;;1.19;100.00;102609.97;5002872;28;20027;-79
2022/01/15 10:37:34;;;;;;;221.23;38.42;;;;;;;1.19;100.00;102609.97;5001696;28;20046;-79
2022/01/15 10:40:10;;;;;;;354.02;45.42;;;;;;;1.18;100.00;102605.50;4998124;28;20072;-80
2022/01/15 10:42:36;;;;;;;444.30;55.95;;;;;;;1.29;100.00;102611.63;4996309;28;20491;-80
2022/01/15 10:45:11;;;;;;;715.90;91.03;;;;;;;1.31;100.00;102599.94;4996793;28;20031;-77
2022/01/15 10:47:43;;;;;;;584.67;75.07;;;;;;;1.23;100.00;102597.31;4980355;28;20673;-78
2022/01/15 10:50:18;;;;;;;689.05;74.15;;;;;;;1.20;100.00;102595.56;4990671;28;20037;-80
2022/01/15 10:52:43;;;;;;;628.47;89.03;;;;;;;1.21;100.00;102591.06;4999672;28;20086;-79
2022/01/15 10:55:11;;;;;;;595.58;73.40;;;;;;;1.20;100.00;102600.97;4991291;28;20086;-78
2022/01/15 10:57:57;;;;;;;386.67;67.70;;;;;;;1.36;100.00;102600.78;4992285;28;20064;-78
2022/01/15 11:00:29;;;;;;;372.77;56.35;;;;;;;1.27;100.00;102589.19;5017056;28;20034;-77
2022/01/15 11:03:00;;;;;;;375.65;60.70;;;;;;;1.32;100.00;102589.13;4996411;28;20035;-78
2022/01/15 11:05:43;;;;;;;354.63;54.10;;;;;;;1.40;100.00;102584.53;4992197;28;20035;-78
2022/01/15 11:08:28;;;;;;;274.20;45.20;;;;;;;1.37;100.00;102579.16;4988740;28;20046;-79
2022/01/15 11:10:56;;;;;;;280.55;45.90;;;;;;;1.43;100.00;102576.41;4993019;28;20047;-79
2022/01/15 11:13:26;;;;;;;335.27;49.67;;;;;;;1.46;100.00;102583.56;5002388;28;20045;-78
2022/01/15 11:15:56;;;;;;;335.98;51.42;;;;;;;1.48;100.00;102576.34;5003094;28;20121;-78
2022/01/15 11:18:28;;;;;;;305.08;48.78;;;;;;;1.47;100.00;102569.16;4981153;28;20090;-79
2022/01/15 11:20:56;;;;;;;372.30;53.83;;;;;;;1.36;100.00;102560.31;4987990;28;20050;-78
2022/01/15 11:23:26;;;;;;;268.00;45.25;;;;;;;1.49;100.00;102556.53;5002156;28;20066;-78
2022/01/15 11:25:53;;;;;;;324.88;49.63;;;;;;;1.46;100.00;102556.59;4998049;28;20468;-79
2022/01/15 11:28:24;;;;;;;313.83;52.40;;;;;;;1.50;100.00;102555.63;4981141;28;20424;-78